Gaschem Phoenix — ELUO6 — position and weather

sailwx.info

Track history (hours):
 
Tides and Currents Weather Stations Pressure Air Temp Water Temp Dewpoint Dewpoint Depression Visibility Wind Speed Wind Dir Waves Ship Positions

Gaschem Phoenix

Last reported at 2015-Mar-28 11:30 UTC. Time now 2015-Mar-29 19:38 UTC.
Position N 31°02' E 122°58'.

Length 100 m; draft 4.5 m.

Type: Ship. MMSI: 636090235.

Date/timePositionNaut miles runAvg speedWind from/ knotsBaromVisibWave heightAir tempDewpointWater temp
2015-Mar-28 11:30N 31°02' E 122°58'1612.9
2015-Mar-28 10:16N 30°55' E 122°41'2212.3
2015-Mar-28 08:29N 30°46' E 122°18'1312.7
2015-Mar-28 07:27N 30°34' E 122°12'1111.9
2015-Mar-28 06:33N 30°28' E 122°01'1212.4
2015-Mar-28 05:34N 30°22' E 121°49'2110.4
2015-Mar-28 03:31N 30°01' E 121°49'8 8.5
2015-Mar-28 02:33N 29°57' E 121°57'0 0.0
2015-Mar-27 23:15N 29°57' E 121°57'0 0.0
2015-Mar-27 02:33N 29°57' E 121°57'5 5.3
2015-Mar-27 01:33N 29°57' E 121°51'1210.4
2015-Mar-27 00:23N 30°09' E 121°48'911.4
2015-Mar-26 23:33N 30°19' E 121°47'98 8.8
2015-Mar-26 12:26N 31°12' E 123°22'  
2015-Mar-24 04:07N 34°02' E 130°50'  
2015-Mar-21 09:22N 31°00' E 122°58'1112.9
2015-Mar-21 08:33N 30°56' E 122°47'1414.3
2015-Mar-21 07:33N 30°53' E 122°31'1414.0
2015-Mar-21 06:32N 30°45' E 122°17'1313.2
2015-Mar-21 05:31N 30°32' E 122°11'1312.5
2015-Mar-21 04:31N 30°27' E 121°58'1211.5
2015-Mar-21 03:27N 30°19' E 121°47'1513.6
2015-Mar-21 02:21N 30°04' E 121°48'911.0
2015-Mar-21 01:33N 29°57' E 121°55'2 2.3
2015-Mar-21 00:32N 29°57' E 121°57'0 0.0
2015-Mar-20 03:09N 29°57' E 121°57'5 7.9
2015-Mar-20 02:33N 29°57' E 121°52'7 7.1
2015-Mar-20 01:32N 30°04' E 121°48'9 9.1
2015-Mar-20 00:32N 30°13' E 121°46'1 1.1
2015-Mar-19 23:31N 30°14' E 121°45'0 0.2
2015-Mar-19 22:25N 30°13' E 121°46'0 0.0
2015-Mar-19 21:33N 30°13' E 121°46'0 0.0
2015-Mar-19 20:32N 30°13' E 121°46'0 0.0
2015-Mar-19 19:33N 30°13' E 121°46'0 0.1
2015-Mar-19 18:31N 30°13' E 121°45'0 0.0
2015-Mar-19 17:33N 30°14' E 121°45'0 0.1
2015-Mar-19 16:19N 30°14' E 121°45'0 0.1
2015-Mar-19 15:29N 30°14' E 121°45'0 0.0
2015-Mar-19 13:28N 30°14' E 121°45'0 0.1
2015-Mar-19 12:26N 30°14' E 121°45'0 0.0
2015-Mar-19 11:33N 30°14' E 121°45'0 0.2
2015-Mar-19 10:25N 30°13' E 121°45'0 0.1
2015-Mar-19 09:29N 30°13' E 121°46'0 0.0
2015-Mar-19 08:29N 30°13' E 121°46'0 0.1
2015-Mar-19 07:26N 30°13' E 121°45'0 0.1
2015-Mar-19 06:27N 30°13' E 121°45'0 0.0
2015-Mar-19 05:32N 30°13' E 121°45'0 0.2
2015-Mar-19 04:31N 30°14' E 121°45'0 0.1
2015-Mar-19 03:30N 30°14' E 121°45'0 0.1
2015-Mar-19 02:15N 30°14' E 121°45'0 0.0
2015-Mar-18 22:31N 30°14' E 121°45'0 0.2
2015-Mar-18 21:32N 30°13' E 121°45'0 0.0
2015-Mar-18 20:30N 30°13' E 121°45'0 0.1
2015-Mar-18 19:24N 30°13' E 121°45'0 0.1
2015-Mar-18 18:28N 30°13' E 121°45'0 0.0
2015-Mar-18 17:22N 30°13' E 121°45'0 0.1
2015-Mar-18 16:27N 30°14' E 121°45'0 0.1
2015-Mar-18 15:32N 30°14' E 121°45'0 0.1
2015-Mar-18 14:29N 30°14' E 121°45'0 0.0
2015-Mar-18 12:33N 30°14' E 121°45'0 0.0
2015-Mar-18 11:33N 30°14' E 121°45'  
Track history (hours):
 
Tides and Currents Weather Stations Pressure Air Temp Water Temp Dewpoint Dewpoint Depression Visibility Wind Speed Wind Dir Waves Ship Positions

Gaschem Phoenix

Last reported at 2015-Mar-28 11:30 UTC. Time now 2015-Mar-29 19:38 UTC.
Position N 31°02' E 122°58'.

Length 100 m; draft 4.5 m.

Type: Ship. MMSI: 636090235.

Date/timePositionNaut miles runAvg speedWind from/ knotsBaromVisibWave heightAir tempDewpointWater temp
2015-Mar-28 11:30N 31°02' E 122°58'1612.9
2015-Mar-28 10:16N 30°55' E 122°41'2212.3
2015-Mar-28 08:29N 30°46' E 122°18'1312.7
2015-Mar-28 07:27N 30°34' E 122°12'1111.9
2015-Mar-28 06:33N 30°28' E 122°01'1212.4
2015-Mar-28 05:34N 30°22' E 121°49'2110.4
2015-Mar-28 03:31N 30°01' E 121°49'8 8.5
2015-Mar-28 02:33N 29°57' E 121°57'0 0.0
2015-Mar-27 23:15N 29°57' E 121°57'0 0.0
2015-Mar-27 02:33N 29°57' E 121°57'5 5.3
2015-Mar-27 01:33N 29°57' E 121°51'1210.4
2015-Mar-27 00:23N 30°09' E 121°48'911.4
2015-Mar-26 23:33N 30°19' E 121°47'98 8.8
2015-Mar-26 12:26N 31°12' E 123°22'  
2015-Mar-24 04:07N 34°02' E 130°50'  
2015-Mar-21 09:22N 31°00' E 122°58'1112.9
2015-Mar-21 08:33N 30°56' E 122°47'1414.3
2015-Mar-21 07:33N 30°53' E 122°31'1414.0
2015-Mar-21 06:32N 30°45' E 122°17'1313.2
2015-Mar-21 05:31N 30°32' E 122°11'1312.5
2015-Mar-21 04:31N 30°27' E 121°58'1211.5
2015-Mar-21 03:27N 30°19' E 121°47'1513.6
2015-Mar-21 02:21N 30°04' E 121°48'911.0
2015-Mar-21 01:33N 29°57' E 121°55'2 2.3
2015-Mar-21 00:32N 29°57' E 121°57'0 0.0
2015-Mar-20 03:09N 29°57' E 121°57'5 7.9
2015-Mar-20 02:33N 29°57' E 121°52'7 7.1
2015-Mar-20 01:32N 30°04' E 121°48'9 9.1
2015-Mar-20 00:32N 30°13' E 121°46'1 1.1
2015-Mar-19 23:31N 30°14' E 121°45'0 0.2
2015-Mar-19 22:25N 30°13' E 121°46'0 0.0
2015-Mar-19 21:33N 30°13' E 121°46'0 0.0
2015-Mar-19 20:32N 30°13' E 121°46'0 0.0
2015-Mar-19 19:33N 30°13' E 121°46'0 0.1
2015-Mar-19 18:31N 30°13' E 121°45'0 0.0
2015-Mar-19 17:33N 30°14' E 121°45'0 0.1
2015-Mar-19 16:19N 30°14' E 121°45'0 0.1
2015-Mar-19 15:29N 30°14' E 121°45'0 0.0
2015-Mar-19 13:28N 30°14' E 121°45'0 0.1
2015-Mar-19 12:26N 30°14' E 121°45'0 0.0
2015-Mar-19 11:33N 30°14' E 121°45'0 0.2
2015-Mar-19 10:25N 30°13' E 121°45'0 0.1
2015-Mar-19 09:29N 30°13' E 121°46'0 0.0
2015-Mar-19 08:29N 30°13' E 121°46'0 0.1
2015-Mar-19 07:26N 30°13' E 121°45'0 0.1
2015-Mar-19 06:27N 30°13' E 121°45'0 0.0
2015-Mar-19 05:32N 30°13' E 121°45'0 0.2
2015-Mar-19 04:31N 30°14' E 121°45'0 0.1
2015-Mar-19 03:30N 30°14' E 121°45'0 0.1
2015-Mar-19 02:15N 30°14' E 121°45'0 0.0
2015-Mar-18 22:31N 30°14' E 121°45'0 0.2
2015-Mar-18 21:32N 30°13' E 121°45'0 0.0
2015-Mar-18 20:30N 30°13' E 121°45'0 0.1
2015-Mar-18 19:24N 30°13' E 121°45'0 0.1
2015-Mar-18 18:28N 30°13' E 121°45'0 0.0
2015-Mar-18 17:22N 30°13' E 121°45'0 0.1
2015-Mar-18 16:27N 30°14' E 121°45'0 0.1
2015-Mar-18 15:32N 30°14' E 121°45'0 0.1
2015-Mar-18 14:29N 30°14' E 121°45'0 0.0
2015-Mar-18 12:33N 30°14' E 121°45'0 0.0
2015-Mar-18 11:33N 30°14' E 121°45'  

Dump ship's entire track history